createdAt,value
2023-01-08T00:15:39.377Z,7.2
2023-01-08T00:31:22.401Z,7.8
2023-01-08T00:47:05.175Z,7.8
2023-01-08T01:02:47.617Z,8.39
2023-01-08T01:18:30.381Z,8.3
2023-01-08T01:34:13.574Z,8.7
2023-01-08T01:49:56.333Z,9.39
2023-01-08T02:05:38.892Z,10
2023-01-08T02:21:21.639Z,9.8
2023-01-08T02:37:03.985Z,11.5
2023-01-08T02:52:46.434Z,10.9
2023-01-08T03:08:29.564Z,11.4
2023-01-08T03:24:11.795Z,12
2023-01-08T03:39:54.614Z,10.4
2023-01-08T03:55:37.559Z,11.2
2023-01-08T04:11:19.996Z,10.7
2023-01-08T04:27:02.262Z,10.2
2023-01-08T04:42:44.691Z,9.5
2023-01-08T04:58:27.518Z,11
2023-01-08T05:14:10.662Z,10.5
2023-01-08T05:29:53.600Z,10.5
2023-01-08T05:45:36.462Z,10.7
2023-01-08T06:01:19.510Z,10
2023-01-08T06:17:02.111Z,10.6
2023-01-08T06:32:44.529Z,10.3
2023-01-08T06:48:26.861Z,9.6
2023-01-08T07:04:09.996Z,9.2
2023-01-08T07:19:52.825Z,9
2023-01-08T07:35:35.638Z,9.1
2023-01-08T07:51:18.790Z,9.3
2023-01-08T08:07:01.922Z,7.3
2023-01-08T08:22:44.682Z,9.2
2023-01-08T08:38:27.167Z,8.39
2023-01-08T08:54:09.928Z,7.5
2023-01-08T09:09:53.058Z,7.3
2023-01-08T09:25:35.496Z,8.3
2023-01-08T09:41:18.532Z,7.6
2023-01-08T09:57:01.038Z,6.7
2023-01-08T10:12:43.344Z,7.2
2023-01-08T10:28:25.992Z,7.1
2023-01-08T10:29:13.374Z,6.8
2023-01-08T10:44:56.049Z,9.1
2023-01-08T11:00:38.438Z,8.8
2023-01-08T11:16:20.653Z,9.7
2023-01-08T11:32:02.979Z,10.8
2023-01-08T11:47:46.120Z,10.8
2023-01-08T12:03:28.742Z,9.1
2023-01-08T12:19:11.625Z,8.7
2023-01-08T12:34:54.800Z,9.2
2023-01-08T12:50:37.686Z,9.39
2023-01-08T13:06:20.264Z,8.39
2023-01-08T13:22:03.109Z,9.7
2023-01-08T13:37:46.072Z,10.4
2023-01-08T13:53:29.168Z,11
2023-01-08T14:09:12.294Z,13.5
2023-01-08T14:24:55.290Z,12.6
2023-01-08T14:40:38.331Z,15.9
2023-01-08T14:56:21.561Z,15.9
2023-01-08T15:12:04.045Z,15.7
2023-01-08T15:27:46.873Z,18.5
2023-01-08T15:43:29.586Z,17.4
2023-01-08T15:59:11.866Z,16.29
2023-01-08T16:14:54.652Z,14.7
2023-01-08T16:30:36.979Z,15
2023-01-08T16:46:19.381Z,13.3
2023-01-08T17:02:01.664Z,12.8
2023-01-08T17:17:44.096Z,13.4
2023-01-08T17:33:26.773Z,14.9
2023-01-08T17:49:09.353Z,16
2023-01-08T18:04:52.352Z,15.2
2023-01-08T18:20:35.466Z,17.9
2023-01-08T18:36:18.383Z,29.5
2023-01-08T18:52:01.328Z,20.8
2023-01-08T19:07:44.410Z,21
2023-01-08T19:23:27.578Z,22.8
2023-01-08T19:39:10.651Z,22.7
2023-01-08T19:54:53.237Z,22.3
2023-01-08T20:10:36.066Z,21.5
2023-01-08T20:26:18.711Z,20.7
2023-01-08T20:42:01.846Z,44.7
2023-01-08T20:57:44.952Z,51.2
2023-01-08T21:13:27.241Z,32.5
2023-01-08T21:29:10.331Z,26.9
2023-01-08T21:44:53.568Z,22.7
2023-01-08T22:00:36.798Z,18.5
2023-01-08T22:16:19.183Z,17.79
2023-01-08T22:32:02.022Z,20.6
2023-01-08T22:47:44.460Z,20
2023-01-08T23:03:26.790Z,18.4
2023-01-08T23:19:09.423Z,20.1
2023-01-08T23:34:52.002Z,21.6
2023-01-08T23:50:34.601Z,21.5
